createdAt,value
2019-03-30T00:00:52.125Z,179.97
2019-03-30T00:03:24.321Z,178.10
2019-03-30T00:05:55.030Z,183.20
2019-03-30T00:08:25.781Z,183.10
2019-03-30T00:10:56.828Z,178.53
2019-03-30T00:13:27.239Z,174.60
2019-03-30T00:15:57.761Z,168.33
2019-03-30T00:18:29.059Z,168.47
2019-03-30T00:21:07.219Z,172.40
2019-03-30T00:23:37.967Z,168.80
2019-03-30T00:26:09.179Z,168.67
2019-03-30T00:28:40.354Z,164.17
2019-03-30T00:31:11.253Z,163.33
2019-03-30T00:33:42.447Z,161.80
2019-03-30T00:36:12.815Z,162.40
2019-03-30T00:38:43.423Z,157.33
2019-03-30T00:41:20.074Z,155.90
2019-03-30T00:43:50.894Z,156.93
2019-03-30T00:46:21.681Z,154.70
2019-03-30T00:48:53.126Z,161.53
2019-03-30T00:51:23.519Z,155.70
2019-03-30T00:53:54.511Z,152.50
2019-03-30T00:56:24.959Z,154.80
2019-03-30T00:58:55.827Z,151.07
2019-03-30T01:01:26.560Z,150.07
2019-03-30T01:03:56.968Z,150.50
2019-03-30T01:06:27.851Z,148.30
2019-03-30T01:08:58.347Z,156.73
2019-03-30T01:11:28.818Z,148.30
2019-03-30T01:13:59.956Z,145.40
2019-03-30T01:16:40.945Z,147.43
2019-03-30T01:19:12.528Z,148.47
2019-03-30T01:21:43.739Z,142.40
2019-03-30T01:24:14.282Z,150.60
2019-03-30T01:26:45.319Z,145.97
2019-03-30T01:29:15.698Z,145.83
2019-03-30T01:31:46.051Z,144.07
2019-03-30T01:34:16.498Z,141.50
2019-03-30T01:36:47.318Z,141.20
2019-03-30T01:39:18.261Z,143.17
2019-03-30T01:41:48.675Z,141.77
2019-03-30T01:44:20.014Z,145.00
2019-03-30T01:46:50.703Z,142.13
2019-03-30T01:49:21.043Z,142.07
2019-03-30T01:51:51.434Z,140.37
2019-03-30T01:54:22.618Z,141.10
2019-03-30T01:56:53.307Z,140.07
2019-03-30T01:59:23.683Z,138.60
2019-03-30T02:01:54.728Z,141.90
2019-03-30T02:04:25.111Z,138.20
2019-03-30T02:07:01.478Z,139.07
2019-03-30T02:09:32.307Z,137.87
2019-03-30T02:12:03.281Z,137.47
2019-03-30T02:14:33.695Z,137.60
2019-03-30T02:17:09.946Z,136.90
2019-03-30T02:19:42.840Z,141.40
2019-03-30T02:22:13.451Z,143.50
2019-03-30T02:24:44.668Z,137.10
2019-03-30T02:27:14.998Z,146.07
2019-03-30T02:29:45.413Z,138.53
2019-03-30T02:32:16.322Z,138.60
2019-03-30T02:34:46.804Z,139.90
2019-03-30T02:37:17.210Z,138.07
2019-03-30T02:39:47.889Z,137.50
2019-03-30T02:42:18.256Z,137.03
2019-03-30T02:44:49.994Z,137.37
2019-03-30T02:47:21.562Z,138.77
2019-03-30T02:49:51.954Z,138.70
2019-03-30T02:52:22.953Z,137.10
2019-03-30T02:54:53.369Z,136.77
2019-03-30T02:57:24.160Z,138.13
2019-03-30T02:59:54.832Z,135.90
2019-03-30T03:02:25.542Z,152.57
2019-03-30T03:04:55.956Z,137.40
2019-03-30T03:07:28.280Z,136.47
2019-03-30T03:09:59.328Z,136.17
2019-03-30T03:12:30.107Z,139.17
2019-03-30T03:15:00.626Z,138.17
2019-03-30T03:17:37.449Z,137.07
2019-03-30T03:20:08.723Z,138.30
2019-03-30T03:22:39.412Z,140.43
2019-03-30T03:25:09.880Z,136.80
2019-03-30T03:27:40.764Z,139.37
2019-03-30T03:30:11.768Z,136.03
2019-03-30T03:32:42.641Z,135.33
2019-03-30T03:35:22.143Z,135.27
2019-03-30T03:37:53.034Z,146.90
2019-03-30T03:40:23.739Z,140.57
2019-03-30T03:42:54.081Z,137.27
2019-03-30T03:45:24.480Z,137.70
2019-03-30T03:47:54.868Z,138.40
2019-03-30T03:50:57.919Z,135.00
2019-03-30T03:53:29.028Z,137.20
2019-03-30T03:56:11.383Z,138.40
2019-03-30T03:58:46.495Z,134.93
2019-03-30T04:01:19.365Z,137.37
2019-03-30T04:03:53.395Z,136.77
2019-03-30T04:06:25.267Z,137.20
2019-03-30T04:08:57.856Z,137.40
2019-03-30T04:11:31.588Z,136.60
2019-03-30T04:14:04.371Z,136.33
2019-03-30T04:16:34.722Z,136.60
2019-03-30T04:19:06.072Z,135.37
2019-03-30T04:21:44.083Z,137.67
2019-03-30T04:24:11.951Z,136.87
2019-03-30T04:26:42.428Z,135.47
2019-03-30T04:29:13.142Z,135.43
2019-03-30T04:31:43.582Z,136.17
2019-03-30T04:34:14.022Z,134.57
2019-03-30T04:36:44.473Z,136.27
2019-03-30T04:39:15.180Z,135.87
2019-03-30T04:41:45.584Z,138.97
2019-03-30T04:44:16.298Z,135.63
2019-03-30T04:46:47.040Z,135.97
2019-03-30T04:49:23.728Z,135.73
2019-03-30T04:52:10.509Z,143.73
2019-03-30T04:54:40.901Z,135.73
2019-03-30T04:57:11.348Z,136.53
2019-03-30T04:59:42.214Z,138.23
2019-03-30T05:02:12.950Z,135.17
2019-03-30T05:04:43.853Z,136.77
2019-03-30T05:07:15.842Z,137.03
2019-03-30T05:09:46.582Z,135.50
2019-03-30T05:12:17.326Z,138.13
2019-03-30T05:14:48.164Z,136.13
2019-03-30T05:17:18.531Z,135.10
2019-03-30T05:19:48.927Z,138.60
2019-03-30T05:22:19.639Z,136.00
2019-03-30T05:24:50.054Z,135.40
2019-03-30T05:27:20.516Z,137.97
2019-03-30T05:29:51.455Z,135.70
2019-03-30T05:32:21.959Z,135.87
2019-03-30T05:34:52.329Z,139.27
2019-03-30T05:37:23.160Z,136.33
2019-03-30T05:39:55.321Z,135.20
2019-03-30T05:42:25.830Z,136.77
2019-03-30T05:44:57.923Z,148.50
2019-03-30T05:47:29.472Z,136.50
2019-03-30T05:49:59.843Z,135.30
2019-03-30T05:52:30.560Z,139.60
2019-03-30T05:55:01.224Z,135.67
2019-03-30T05:57:31.968Z,160.87
2019-03-30T06:00:02.326Z,139.57
2019-03-30T06:02:32.781Z,135.77
2019-03-30T06:05:03.876Z,134.60
2019-03-30T06:07:34.855Z,134.70
2019-03-30T06:10:05.441Z,135.73
2019-03-30T06:12:36.671Z,134.27
2019-03-30T06:15:07.999Z,133.27
2019-03-30T06:17:38.463Z,134.10
2019-03-30T06:20:09.480Z,134.03
2019-03-30T06:22:40.851Z,133.50
2019-03-30T06:25:12.240Z,132.87
2019-03-30T06:27:43.038Z,129.20
2019-03-30T06:30:18.796Z,128.40
2019-03-30T06:32:50.493Z,128.27
2019-03-30T06:35:21.354Z,130.60
2019-03-30T06:37:51.905Z,127.20
2019-03-30T06:40:22.300Z,127.60
2019-03-30T06:42:53.806Z,130.57
2019-03-30T06:45:24.606Z,128.47
2019-03-30T06:47:55.497Z,133.17
2019-03-30T06:50:25.916Z,135.03
2019-03-30T06:52:58.626Z,144.90
2019-03-30T06:55:29.251Z,143.37
2019-03-30T06:58:00.115Z,149.27
2019-03-30T07:00:36.882Z,160.83
2019-03-30T07:03:08.153Z,174.33
2019-03-30T07:05:41.182Z,198.47
2019-03-30T07:08:18.518Z,185.23
2019-03-30T07:10:49.209Z,176.57
2019-03-30T07:13:20.093Z,181.97
2019-03-30T07:15:51.370Z,169.27
2019-03-30T07:18:22.215Z,163.00
2019-03-30T07:20:53.280Z,185.87
2019-03-30T07:23:23.776Z,208.90
2019-03-30T07:25:54.167Z,264.13
2019-03-30T07:28:24.858Z,248.50
2019-03-30T07:30:55.255Z,217.83
2019-03-30T07:33:26.325Z,219.97
2019-03-30T07:35:56.812Z,233.50
2019-03-30T07:38:27.179Z,300.57
2019-03-30T07:40:57.591Z,330.13
2019-03-30T07:43:28.999Z,395.70
2019-03-30T07:46:00.655Z,476.57
2019-03-30T07:48:31.136Z,574.37
2019-03-30T07:51:01.870Z,615.87
2019-03-30T07:53:43.853Z,633.53
2019-03-30T07:56:08.555Z,685.07
2019-03-30T07:58:36.891Z,736.57
2019-03-30T08:01:07.322Z,787.20
2019-03-30T08:03:38.008Z,832.93
2019-03-30T08:06:08.867Z,833.47
2019-03-30T08:08:39.270Z,879.50
2019-03-30T08:11:09.695Z,884.20
2019-03-30T08:13:40.074Z,909.77
2019-03-30T08:16:10.797Z,943.63
2019-03-30T08:18:41.697Z,970.93
2019-03-30T08:21:12.418Z,944.53
2019-03-30T08:23:43.666Z,951.90
2019-03-30T08:26:14.078Z,946.03
2019-03-30T08:28:45.429Z,956.40
2019-03-30T08:31:16.661Z,978.33
2019-03-30T08:33:47.077Z,1007.53
2019-03-30T08:36:17.814Z,1021.30
2019-03-30T08:38:48.738Z,1048.80
2019-03-30T08:41:19.494Z,1047.53
2019-03-30T08:43:50.281Z,1049.50
2019-03-30T08:46:21.288Z,1047.87
2019-03-30T08:48:51.694Z,1033.10
2019-03-30T08:51:22.206Z,1049.93
2019-03-30T08:53:54.775Z,1043.93
2019-03-30T08:56:27.885Z,1044.27
2019-03-30T08:58:57.822Z,1036.00
2019-03-30T09:01:28.858Z,1051.67
2019-03-30T09:03:59.489Z,1048.40
2019-03-30T09:06:30.536Z,1033.40
2019-03-30T09:09:02.461Z,1021.57
2019-03-30T09:11:35.172Z,1053.87
2019-03-30T09:14:05.618Z,1044.20
2019-03-30T09:16:36.714Z,1024.40
2019-03-30T09:19:07.579Z,1023.40
2019-03-30T09:21:38.407Z,976.23
2019-03-30T09:24:10.453Z,976.70
2019-03-30T09:26:41.395Z,965.90
2019-03-30T09:29:14.095Z,931.33
2019-03-30T09:31:44.523Z,932.70
2019-03-30T09:34:14.879Z,914.30
2019-03-30T09:36:46.905Z,946.10
2019-03-30T09:39:17.955Z,933.07
2019-03-30T09:41:48.618Z,921.10
2019-03-30T09:44:19.459Z,885.70
2019-03-30T09:46:49.854Z,899.80
2019-03-30T09:49:21.806Z,900.83
2019-03-30T09:51:52.107Z,913.17
2019-03-30T09:54:23.958Z,898.03
2019-03-30T09:56:54.641Z,909.13
2019-03-30T09:59:25.499Z,931.70
2019-03-30T10:01:55.873Z,927.13
2019-03-30T10:04:26.558Z,919.60
2019-03-30T10:06:56.983Z,925.63
2019-03-30T10:09:27.343Z,894.63
2019-03-30T10:11:58.004Z,904.67
2019-03-30T10:14:28.671Z,898.83
2019-03-30T10:17:00.337Z,889.77
2019-03-30T10:19:31.026Z,879.37
2019-03-30T10:22:02.759Z,867.10
2019-03-30T10:24:38.455Z,886.17
2019-03-30T10:27:05.878Z,890.40
2019-03-30T10:29:36.203Z,896.23
2019-03-30T10:32:06.979Z,902.43
2019-03-30T10:34:39.777Z,940.13
2019-03-30T10:37:10.344Z,958.40
2019-03-30T10:39:41.041Z,979.00
2019-03-30T10:42:11.370Z,996.67
2019-03-30T10:44:42.231Z,968.97
2019-03-30T10:47:12.651Z,966.20
2019-03-30T10:49:45.429Z,945.33
2019-03-30T10:55:11.671Z,957.83
2019-03-30T10:57:42.029Z,942.03
2019-03-30T11:00:14.448Z,946.73
2019-03-30T11:02:45.322Z,968.37
2019-03-30T11:05:16.608Z,963.47
2019-03-30T11:07:47.741Z,962.33
2019-03-30T11:10:18.595Z,984.10
2019-03-30T11:12:48.939Z,998.27
2019-03-30T11:15:19.416Z,1002.27
2019-03-30T11:17:50.255Z,1005.13
2019-03-30T11:20:21.087Z,1035.90
2019-03-30T11:22:52.018Z,1033.70
2019-03-30T11:25:23.533Z,1042.57
2019-03-30T11:27:54.903Z,1019.27
2019-03-30T11:30:25.635Z,1020.80
2019-03-30T11:32:56.362Z,1008.30
2019-03-30T11:35:27.767Z,1047.17
2019-03-30T11:37:58.515Z,1055.87
2019-03-30T11:40:29.305Z,1042.83
2019-03-30T11:42:59.692Z,1017.00
2019-03-30T11:45:30.169Z,1031.17
2019-03-30T11:48:16.172Z,1051.20
2019-03-30T11:50:47.395Z,1071.97
2019-03-30T11:53:18.580Z,1080.60
2019-03-30T11:55:48.956Z,1094.53
2019-03-30T11:58:19.333Z,1081.00
2019-03-30T12:00:51.390Z,1097.93
2019-03-30T12:03:21.781Z,1090.77
2019-03-30T12:05:52.127Z,1075.03
2019-03-30T12:08:22.911Z,1084.27
2019-03-30T12:10:53.767Z,1076.40
2019-03-30T12:13:24.575Z,1101.20
2019-03-30T12:15:56.699Z,1062.60
2019-03-30T12:18:27.318Z,1093.90
2019-03-30T12:20:58.004Z,1103.50
2019-03-30T12:23:28.799Z,1093.27
2019-03-30T12:25:59.496Z,1110.10
2019-03-30T12:28:30.150Z,1105.90
2019-03-30T12:31:01.021Z,1106.77
2019-03-30T12:33:31.695Z,1106.87
2019-03-30T12:36:02.357Z,1096.83
2019-03-30T12:38:33.266Z,1124.27
2019-03-30T12:41:03.942Z,1123.53
2019-03-30T12:43:34.677Z,1127.60
2019-03-30T12:46:05.046Z,1126.67
2019-03-30T12:48:35.411Z,1138.27
2019-03-30T12:51:06.352Z,1130.10
2019-03-30T12:53:49.499Z,1130.23
2019-03-30T12:56:09.205Z,1153.20
2019-03-30T12:58:39.498Z,1156.37
2019-03-30T13:01:10.663Z,1153.53
2019-03-30T13:03:41.327Z,1151.50
2019-03-30T13:06:12.040Z,1166.23
2019-03-30T13:08:43.048Z,1171.90
2019-03-30T13:11:13.754Z,1173.67
2019-03-30T13:13:44.105Z,1194.87
2019-03-30T13:16:14.501Z,1175.00
2019-03-30T13:18:46.011Z,1196.27
2019-03-30T13:21:16.699Z,1177.90
2019-03-30T13:23:47.375Z,1198.47
2019-03-30T13:26:18.138Z,1197.63
2019-03-30T13:28:48.487Z,1199.83
2019-03-30T13:31:19.281Z,1186.53
2019-03-30T13:33:49.940Z,1180.63
2019-03-30T13:36:36.947Z,1188.63
2019-03-30T13:39:09.195Z,1199.50
2019-03-30T13:41:40.082Z,1209.73
2019-03-30T13:44:10.840Z,1221.67
2019-03-30T13:46:41.258Z,1232.97
2019-03-30T13:49:11.959Z,1170.63
2019-03-30T13:51:42.376Z,1165.10
2019-03-30T13:54:13.644Z,1165.60
2019-03-30T13:56:43.981Z,1172.30
2019-03-30T13:59:14.308Z,1178.07
2019-03-30T14:01:45.286Z,1168.70
2019-03-30T14:04:16.832Z,1187.33
2019-03-30T14:06:47.309Z,1199.23
2019-03-30T14:09:18.215Z,1208.53
2019-03-30T14:11:48.676Z,1187.23
2019-03-30T14:14:19.451Z,1190.13
2019-03-30T14:16:50.367Z,1198.27
2019-03-30T14:19:21.083Z,1197.97
2019-03-30T14:21:52.240Z,1200.47
2019-03-30T14:24:22.651Z,1205.27
2019-03-30T14:26:53.321Z,1213.57
2019-03-30T14:29:24.247Z,1224.83
2019-03-30T14:31:55.025Z,1205.83
2019-03-30T14:34:25.531Z,1198.20
2019-03-30T14:36:56.251Z,1208.10
2019-03-30T14:39:26.737Z,1194.87
2019-03-30T14:41:57.296Z,1185.37
2019-03-30T14:44:28.719Z,1183.03
2019-03-30T14:47:00.063Z,1175.77
2019-03-30T14:49:30.468Z,1181.53
2019-03-30T14:52:03.613Z,1176.40
2019-03-30T14:54:34.082Z,1194.87
2019-03-30T14:57:05.696Z,1181.87
2019-03-30T14:59:39.110Z,1192.27
2019-03-30T15:02:09.652Z,1187.27
2019-03-30T15:04:40.601Z,1184.53
2019-03-30T15:07:11.361Z,1178.73
2019-03-30T15:09:41.874Z,1177.57
2019-03-30T15:12:13.391Z,1161.07
2019-03-30T15:14:44.386Z,1184.50
2019-03-30T15:17:15.263Z,1161.90
2019-03-30T15:19:45.705Z,1169.60
2019-03-30T15:22:16.765Z,1167.03
2019-03-30T15:24:48.334Z,1169.33
2019-03-30T15:27:19.053Z,1171.17
2019-03-30T15:29:50.226Z,1173.73
2019-03-30T15:32:21.230Z,1170.77
2019-03-30T15:34:52.287Z,1161.77
2019-03-30T15:37:22.661Z,1173.33
2019-03-30T15:39:53.024Z,1169.17
2019-03-30T15:42:23.860Z,1169.77
2019-03-30T15:44:55.592Z,1162.13
2019-03-30T15:47:26.367Z,1170.43
2019-03-30T15:49:58.631Z,1169.53
2019-03-30T15:52:29.258Z,1166.07
2019-03-30T15:55:00.153Z,1168.57
2019-03-30T15:57:30.671Z,1164.17
2019-03-30T16:00:01.035Z,1151.90
2019-03-30T16:02:32.380Z,1160.70
2019-03-30T16:05:04.016Z,1160.20
2019-03-30T16:07:34.379Z,1154.53
2019-03-30T16:10:05.637Z,1152.67
2019-03-30T16:12:36.379Z,1153.70
2019-03-30T16:15:07.483Z,1170.37
2019-03-30T16:17:37.975Z,1160.23
2019-03-30T16:20:09.144Z,1156.43
2019-03-30T16:22:39.895Z,1155.13
2019-03-30T16:25:10.954Z,1146.50
2019-03-30T16:27:42.147Z,1142.87
2019-03-30T16:30:13.668Z,1151.23
2019-03-30T16:32:44.414Z,1149.17
2019-03-30T16:35:15.336Z,1141.30
2019-03-30T16:37:46.593Z,1131.10
2019-03-30T16:40:19.146Z,1140.47
2019-03-30T16:42:50.599Z,1135.13
2019-03-30T16:45:21.523Z,1138.37
2019-03-30T16:47:52.312Z,1135.00
2019-03-30T16:50:22.881Z,1128.17
2019-03-30T16:52:53.707Z,1116.83
2019-03-30T16:55:27.857Z,1105.70
2019-03-30T16:57:59.070Z,1101.07
2019-03-30T17:00:33.563Z,1088.03
2019-03-30T17:03:05.068Z,1082.60
2019-03-30T17:05:36.824Z,1072.57
2019-03-30T17:08:07.359Z,1071.20
2019-03-30T17:10:40.424Z,1064.17
2019-03-30T17:13:11.138Z,1058.50
2019-03-30T17:15:42.318Z,1047.50
2019-03-30T17:18:13.138Z,1045.03
2019-03-30T17:20:43.667Z,1034.63
2019-03-30T17:23:14.679Z,1043.67
2019-03-30T17:25:46.286Z,1043.83
2019-03-30T17:28:17.888Z,1026.27
2019-03-30T17:30:48.532Z,1021.17
2019-03-30T17:33:19.761Z,1010.10
2019-03-30T17:35:51.325Z,1015.60
2019-03-30T17:38:22.022Z,1003.20
2019-03-30T17:40:53.792Z,999.67
2019-03-30T17:43:24.460Z,999.60
2019-03-30T17:45:55.611Z,990.40
2019-03-30T17:48:26.024Z,971.27
2019-03-30T17:50:58.157Z,969.97
2019-03-30T17:53:28.543Z,958.83
2019-03-30T17:56:01.914Z,959.53
2019-03-30T17:58:32.059Z,938.00
2019-03-30T18:01:02.538Z,929.13
2019-03-30T18:03:33.278Z,926.43
2019-03-30T18:06:04.343Z,929.53
2019-03-30T18:08:35.218Z,914.83
2019-03-30T18:11:05.695Z,903.23
2019-03-30T18:13:37.256Z,888.53
2019-03-30T18:16:08.475Z,877.50
2019-03-30T18:18:39.214Z,872.77
2019-03-30T18:21:09.942Z,859.20
2019-03-30T18:23:40.800Z,834.67
2019-03-30T18:26:12.150Z,812.27
2019-03-30T18:28:42.609Z,807.80
2019-03-30T18:31:13.060Z,799.10
2019-03-30T18:33:43.829Z,783.40
2019-03-30T18:36:18.772Z,784.87
2019-03-30T18:38:49.995Z,747.93
2019-03-30T18:41:20.988Z,721.50
2019-03-30T18:43:52.489Z,712.03
2019-03-30T18:46:23.448Z,714.13
2019-03-30T18:48:54.351Z,692.67
2019-03-30T18:51:25.303Z,648.97
2019-03-30T18:53:56.166Z,648.73
2019-03-30T18:56:29.741Z,636.00
2019-03-30T18:59:00.735Z,608.53
2019-03-30T19:01:32.810Z,565.73
2019-03-30T19:04:04.583Z,556.00
2019-03-30T19:06:36.436Z,549.00
2019-03-30T19:09:10.254Z,519.33
2019-03-30T19:11:42.004Z,507.67
2019-03-30T19:14:13.933Z,501.37
2019-03-30T19:16:45.879Z,493.90
2019-03-30T19:19:19.240Z,488.53
2019-03-30T19:21:52.686Z,445.50
2019-03-30T19:24:23.873Z,428.13
2019-03-30T19:26:55.290Z,410.83
2019-03-30T19:29:26.181Z,402.27
2019-03-30T19:31:57.760Z,370.17
2019-03-30T19:34:28.945Z,353.27
2019-03-30T19:36:59.666Z,348.43
2019-03-30T19:39:31.319Z,356.03
2019-03-30T19:42:03.215Z,339.40
2019-03-30T19:44:35.921Z,332.17
2019-03-30T19:47:07.202Z,304.03
2019-03-30T19:49:39.139Z,297.23
2019-03-30T19:52:10.378Z,278.07
2019-03-30T19:54:41.107Z,279.33
2019-03-30T19:57:13.643Z,261.13
2019-03-30T19:59:44.915Z,243.37
2019-03-30T20:02:16.229Z,218.43
2019-03-30T20:04:48.560Z,221.50
2019-03-30T20:07:20.271Z,212.40
2019-03-30T20:09:55.373Z,209.20
2019-03-30T20:12:26.567Z,228.43
2019-03-30T20:14:58.778Z,217.47
2019-03-30T20:17:29.846Z,210.87
2019-03-30T20:20:01.081Z,190.90
2019-03-30T20:22:32.238Z,192.97
2019-03-30T20:25:03.713Z,208.20
2019-03-30T20:27:34.734Z,184.07
2019-03-30T20:30:06.656Z,180.93
2019-03-30T20:32:43.260Z,180.87
2019-03-30T20:35:15.254Z,173.37
2019-03-30T20:37:48.644Z,167.70
2019-03-30T20:40:20.419Z,192.97
2019-03-30T20:42:51.886Z,166.30
2019-03-30T20:45:22.686Z,172.70
2019-03-30T20:47:55.439Z,159.63
2019-03-30T20:50:25.992Z,159.37
2019-03-30T20:52:57.472Z,154.67
2019-03-30T20:55:28.519Z,156.57
2019-03-30T20:58:00.295Z,160.20
2019-03-30T21:00:32.167Z,149.40
2019-03-30T21:03:03.386Z,148.47
2019-03-30T21:05:35.771Z,145.90
2019-03-30T21:08:07.511Z,144.50
2019-03-30T21:10:38.902Z,147.60
2019-03-30T21:13:10.361Z,143.23
2019-03-30T21:15:41.840Z,147.97
2019-03-30T21:18:14.049Z,142.37
2019-03-30T21:20:44.743Z,152.70
2019-03-30T21:23:17.017Z,140.87
2019-03-30T21:25:48.721Z,144.40
2019-03-30T21:28:19.378Z,140.70
2019-03-30T21:30:51.461Z,142.40
2019-03-30T21:33:22.366Z,140.87
2019-03-30T21:35:53.244Z,140.20
2019-03-30T21:38:23.666Z,137.00
2019-03-30T21:40:53.996Z,136.77
2019-03-30T21:43:25.355Z,136.60
2019-03-30T21:45:56.180Z,140.97
2019-03-30T21:48:28.341Z,135.97
2019-03-30T21:51:03.472Z,135.30
2019-03-30T21:53:34.666Z,135.53
2019-03-30T21:56:06.764Z,135.30
2019-03-30T21:58:39.222Z,137.00
2019-03-30T22:01:13.053Z,134.57
2019-03-30T22:03:46.880Z,138.00
2019-03-30T22:06:19.083Z,134.00
2019-03-30T22:08:51.018Z,134.27
2019-03-30T22:11:23.315Z,135.97
2019-03-30T22:13:54.155Z,131.97
2019-03-30T22:16:29.684Z,137.17
2019-03-30T22:19:01.137Z,135.13
2019-03-30T22:21:32.438Z,136.43
2019-03-30T22:24:04.948Z,131.87
2019-03-30T22:26:36.698Z,139.00
2019-03-30T22:29:07.211Z,133.50
2019-03-30T22:31:37.982Z,132.30
2019-03-30T22:34:08.988Z,135.37
2019-03-30T22:36:39.449Z,139.23
2019-03-30T22:39:10.351Z,134.70
2019-03-30T22:41:41.343Z,146.40
2019-03-30T22:44:12.841Z,130.13
2019-03-30T22:46:43.466Z,131.97
2019-03-30T22:49:14.371Z,134.77
2019-03-30T22:51:45.439Z,134.77
2019-03-30T22:54:16.435Z,133.63
2019-03-30T22:56:47.292Z,131.83
2019-03-30T22:59:19.036Z,133.23
2019-03-30T23:01:49.999Z,131.23
2019-03-30T23:04:20.697Z,133.77
2019-03-30T23:06:51.125Z,140.97
2019-03-30T23:09:21.972Z,131.87
2019-03-30T23:11:52.476Z,133.30
2019-03-30T23:14:23.147Z,130.43
2019-03-30T23:16:53.502Z,133.17
2019-03-30T23:19:24.311Z,131.60
2019-03-30T23:21:55.063Z,132.10
2019-03-30T23:24:25.492Z,131.30
2019-03-30T23:26:56.198Z,130.87
2019-03-30T23:29:26.605Z,134.27
2019-03-30T23:31:57.353Z,132.73
2019-03-30T23:34:28.826Z,133.00
2019-03-30T23:36:59.265Z,131.80
2019-03-30T23:39:30.139Z,133.40
2019-03-30T23:42:00.890Z,132.70
2019-03-30T23:44:31.331Z,131.43
2019-03-30T23:47:01.990Z,131.00
2019-03-30T23:49:32.370Z,132.90
2019-03-30T23:52:04.203Z,136.37
2019-03-30T23:54:34.630Z,130.57
2019-03-30T23:57:05.023Z,134.07
2019-03-30T23:59:35.841Z,131.67
